sensor_id;sensor_type;location;lat;lon;timestamp;P1;durP1;ratioP1;P2;durP2;ratioP2
70715;SDS011;59053;50.832;12.882;2023-04-03T00:03:29;2.83;;;0.88;;
70715;SDS011;59053;50.832;12.882;2023-04-03T00:05:55;2.97;;;0.93;;
70715;SDS011;59053;50.832;12.882;2023-04-03T00:08:20;3.87;;;1.10;;
70715;SDS011;59053;50.832;12.882;2023-04-03T00:10:46;2.00;;;0.50;;
70715;SDS011;59053;50.832;12.882;2023-04-03T00:13:11;11.53;;;0.97;;
70715;SDS011;59053;50.832;12.882;2023-04-03T00:15:37;3.13;;;0.90;;
70715;SDS011;59053;50.832;12.882;2023-04-03T00:18:03;2.42;;;0.98;;
70715;SDS011;59053;50.832;12.882;2023-04-03T00:20:28;3.30;;;1.07;;
70715;SDS011;59053;50.832;12.882;2023-04-03T00:22:54;3.05;;;0.90;;
70715;SDS011;59053;50.832;12.882;2023-04-03T00:25:19;2.03;;;0.77;;
70715;SDS011;59053;50.832;12.882;2023-04-03T00:27:45;1.93;;;0.60;;
70715;SDS011;59053;50.832;12.882;2023-04-03T00:30:22;2.80;;;1.03;;
70715;SDS011;59053;50.832;12.882;2023-04-03T00:32:48;6.65;;;1.00;;
70715;SDS011;59053;50.832;12.882;2023-04-03T00:35:14;3.88;;;0.90;;
70715;SDS011;59053;50.832;12.882;2023-04-03T00:37:43;3.03;;;1.00;;
70715;SDS011;59053;50.832;12.882;2023-04-03T00:40:09;0.67;;;0.40;;
70715;SDS011;59053;50.832;12.882;2023-04-03T00:42:35;3.90;;;1.75;;
70715;SDS011;59053;50.832;12.882;2023-04-03T00:47:27;1.23;;;0.47;;
70715;SDS011;59053;50.832;12.882;2023-04-03T00:49:53;2.15;;;0.75;;
70715;SDS011;59053;50.832;12.882;2023-04-03T00:55:54;0.73;;;0.68;;
70715;SDS011;59053;50.832;12.882;2023-04-03T00:58:21;2.22;;;0.85;;
70715;SDS011;59053;50.832;12.882;2023-04-03T01:00:54;2.85;;;0.70;;
70715;SDS011;59053;50.832;12.882;2023-04-03T01:03:22;4.60;;;0.90;;
70715;SDS011;59053;50.832;12.882;2023-04-03T01:05:48;9.07;;;1.67;;
70715;SDS011;59053;50.832;12.882;2023-04-03T01:08:14;2.28;;;0.80;;
70715;SDS011;59053;50.832;12.882;2023-04-03T01:10:41;6.35;;;0.88;;
70715;SDS011;59053;50.832;12.882;2023-04-03T01:16:13;6.22;;;1.50;;
70715;SDS011;59053;50.832;12.882;2023-04-03T01:18:38;1.48;;;0.75;;
70715;SDS011;59053;50.832;12.882;2023-04-03T01:26:41;3.58;;;1.08;;
70715;SDS011;59053;50.832;12.882;2023-04-03T01:29:07;2.15;;;0.80;;
70715;SDS011;59053;50.832;12.882;2023-04-03T01:34:17;2.20;;;0.70;;
70715;SDS011;59053;50.832;12.882;2023-04-03T01:39:39;2.67;;;0.73;;
70715;SDS011;59053;50.832;12.882;2023-04-03T01:44:49;1.98;;;0.43;;
70715;SDS011;59053;50.832;12.882;2023-04-03T01:58:08;3.42;;;1.15;;
70715;SDS011;59053;50.832;12.882;2023-04-03T02:00:34;4.60;;;0.90;;
70715;SDS011;59053;50.832;12.882;2023-04-03T02:03:01;5.57;;;0.90;;
70715;SDS011;59053;50.832;12.882;2023-04-03T02:05:27;0.60;;;0.32;;
70715;SDS011;59053;50.832;12.882;2023-04-03T02:07:52;2.73;;;0.90;;
70715;SDS011;59053;50.832;12.882;2023-04-03T02:10:18;2.90;;;0.88;;
70715;SDS011;59053;50.832;12.882;2023-04-03T02:12:43;1.37;;;0.60;;
70715;SDS011;59053;50.832;12.882;2023-04-03T02:15:09;2.13;;;0.87;;
70715;SDS011;59053;50.832;12.882;2023-04-03T02:17:34;1.95;;;0.82;;
70715;SDS011;59053;50.832;12.882;2023-04-03T02:20:00;1.05;;;0.55;;
70715;SDS011;59053;50.832;12.882;2023-04-03T02:22:25;4.07;;;0.90;;
70715;SDS011;59053;50.832;12.882;2023-04-03T02:24:51;4.90;;;1.02;;
70715;SDS011;59053;50.832;12.882;2023-04-03T02:27:17;2.57;;;0.70;;
70715;SDS011;59053;50.832;12.882;2023-04-03T02:29:42;5.35;;;0.82;;
70715;SDS011;59053;50.832;12.882;2023-04-03T02:32:08;4.87;;;1.30;;
70715;SDS011;59053;50.832;12.882;2023-04-03T02:34:34;1.73;;;0.80;;
70715;SDS011;59053;50.832;12.882;2023-04-03T02:37:00;3.38;;;0.93;;
70715;SDS011;59053;50.832;12.882;2023-04-03T02:39:26;3.80;;;0.93;;
70715;SDS011;59053;50.832;12.882;2023-04-03T02:41:53;2.85;;;0.82;;
70715;SDS011;59053;50.832;12.882;2023-04-03T02:44:22;1.20;;;0.52;;
70715;SDS011;59053;50.832;12.882;2023-04-03T02:46:48;3.92;;;0.68;;
70715;SDS011;59053;50.832;12.882;2023-04-03T02:49:14;2.85;;;1.20;;
70715;SDS011;59053;50.832;12.882;2023-04-03T02:51:40;4.10;;;1.20;;
70715;SDS011;59053;50.832;12.882;2023-04-03T02:54:06;3.00;;;0.90;;
70715;SDS011;59053;50.832;12.882;2023-04-03T02:56:35;2.78;;;0.85;;
70715;SDS011;59053;50.832;12.882;2023-04-03T02:59:00;1.98;;;0.75;;
70715;SDS011;59053;50.832;12.882;2023-04-03T03:01:27;2.55;;;1.00;;
70715;SDS011;59053;50.832;12.882;2023-04-03T03:03:56;3.53;;;0.70;;
70715;SDS011;59053;50.832;12.882;2023-04-03T03:06:22;1.63;;;0.57;;
70715;SDS011;59053;50.832;12.882;2023-04-03T03:08:47;1.20;;;0.65;;
70715;SDS011;59053;50.832;12.882;2023-04-03T03:11:13;6.20;;;1.23;;
70715;SDS011;59053;50.832;12.882;2023-04-03T03:13:39;4.87;;;1.17;;
70715;SDS011;59053;50.832;12.882;2023-04-03T03:16:04;4.88;;;1.10;;
70715;SDS011;59053;50.832;12.882;2023-04-03T03:18:30;1.87;;;0.60;;
70715;SDS011;59053;50.832;12.882;2023-04-03T03:20:56;2.78;;;0.77;;
70715;SDS011;59053;50.832;12.882;2023-04-03T03:23:23;4.43;;;1.00;;
70715;SDS011;59053;50.832;12.882;2023-04-03T03:25:54;3.22;;;1.08;;
70715;SDS011;59053;50.832;12.882;2023-04-03T03:28:23;3.03;;;1.00;;
70715;SDS011;59053;50.832;12.882;2023-04-03T03:30:49;5.13;;;1.10;;
70715;SDS011;59053;50.832;12.882;2023-04-03T03:33:16;2.17;;;0.73;;
70715;SDS011;59053;50.832;12.882;2023-04-03T03:35:42;2.58;;;0.63;;
70715;SDS011;59053;50.832;12.882;2023-04-03T03:38:08;1.13;;;0.60;;
70715;SDS011;59053;50.832;12.882;2023-04-03T03:40:36;4.40;;;1.23;;
70715;SDS011;59053;50.832;12.882;2023-04-03T03:43:02;7.53;;;0.90;;
70715;SDS011;59053;50.832;12.882;2023-04-03T03:45:28;4.78;;;0.90;;
70715;SDS011;59053;50.832;12.882;2023-04-03T03:47:53;1.90;;;0.70;;
70715;SDS011;59053;50.832;12.882;2023-04-03T03:50:19;2.00;;;0.73;;
70715;SDS011;59053;50.832;12.882;2023-04-03T03:52:44;5.90;;;1.00;;
70715;SDS011;59053;50.832;12.882;2023-04-03T03:55:10;3.93;;;1.30;;
70715;SDS011;59053;50.832;12.882;2023-04-03T03:57:36;3.60;;;0.90;;
70715;SDS011;59053;50.832;12.882;2023-04-03T04:00:02;2.90;;;0.55;;
70715;SDS011;59053;50.832;12.882;2023-04-03T04:05:34;4.97;;;0.90;;
70715;SDS011;59053;50.832;12.882;2023-04-03T04:08:00;6.10;;;1.60;;
70715;SDS011;59053;50.832;12.882;2023-04-03T04:10:26;7.07;;;1.50;;
70715;SDS011;59053;50.832;12.882;2023-04-03T04:12:51;3.10;;;0.90;;
70715;SDS011;59053;50.832;12.882;2023-04-03T04:15:20;4.95;;;1.10;;
70715;SDS011;59053;50.832;12.882;2023-04-03T04:17:47;3.75;;;1.08;;
70715;SDS011;59053;50.832;12.882;2023-04-03T04:20:12;3.17;;;1.03;;
70715;SDS011;59053;50.832;12.882;2023-04-03T04:22:38;4.15;;;0.73;;
70715;SDS011;59053;50.832;12.882;2023-04-03T04:25:04;4.68;;;1.40;;
70715;SDS011;59053;50.832;12.882;2023-04-03T04:27:32;2.92;;;1.15;;
70715;SDS011;59053;50.832;12.882;2023-04-03T04:32:55;6.53;;;1.05;;
70715;SDS011;59053;50.832;12.882;2023-04-03T04:35:24;4.13;;;1.30;;
70715;SDS011;59053;50.832;12.882;2023-04-03T04:37:51;4.00;;;1.20;;
70715;SDS011;59053;50.832;12.882;2023-04-03T04:40:17;3.50;;;1.13;;
70715;SDS011;59053;50.832;12.882;2023-04-03T04:42:43;5.00;;;0.95;;
70715;SDS011;59053;50.832;12.882;2023-04-03T04:45:09;6.03;;;1.25;;
70715;SDS011;59053;50.832;12.882;2023-04-03T04:47:37;1.70;;;0.55;;
70715;SDS011;59053;50.832;12.882;2023-04-03T04:52:54;3.33;;;0.98;;
70715;SDS011;59053;50.832;12.882;2023-04-03T04:55:19;4.10;;;1.13;;
70715;SDS011;59053;50.832;12.882;2023-04-03T04:57:45;5.90;;;1.10;;
70715;SDS011;59053;50.832;12.882;2023-04-03T05:00:12;3.40;;;1.05;;
70715;SDS011;59053;50.832;12.882;2023-04-03T05:02:38;3.50;;;1.20;;
70715;SDS011;59053;50.832;12.882;2023-04-03T05:08:03;6.90;;;1.23;;
70715;SDS011;59053;50.832;12.882;2023-04-03T05:10:29;1.17;;;0.63;;
70715;SDS011;59053;50.832;12.882;2023-04-03T05:12:55;5.15;;;1.25;;
70715;SDS011;59053;50.832;12.882;2023-04-03T05:15:21;3.08;;;1.00;;
70715;SDS011;59053;50.832;12.882;2023-04-03T05:17:46;3.37;;;0.70;;
70715;SDS011;59053;50.832;12.882;2023-04-03T05:20:13;7.47;;;1.45;;
70715;SDS011;59053;50.832;12.882;2023-04-03T05:22:40;1.70;;;0.73;;
70715;SDS011;59053;50.832;12.882;2023-04-03T05:25:08;2.58;;;0.80;;
70715;SDS011;59053;50.832;12.882;2023-04-03T05:27:34;1.98;;;0.80;;
70715;SDS011;59053;50.832;12.882;2023-04-03T05:30:00;1.92;;;0.90;;
70715;SDS011;59053;50.832;12.882;2023-04-03T05:32:26;1.10;;;0.50;;
70715;SDS011;59053;50.832;12.882;2023-04-03T05:35:02;4.50;;;0.82;;
70715;SDS011;59053;50.832;12.882;2023-04-03T05:37:28;1.27;;;0.52;;
70715;SDS011;59053;50.832;12.882;2023-04-03T05:39:54;3.17;;;1.10;;
70715;SDS011;59053;50.832;12.882;2023-04-03T05:42:20;6.78;;;0.70;;
70715;SDS011;59053;50.832;12.882;2023-04-03T05:44:45;4.17;;;1.20;;
70715;SDS011;59053;50.832;12.882;2023-04-03T05:47:12;3.88;;;0.82;;
70715;SDS011;59053;50.832;12.882;2023-04-03T05:49:38;4.50;;;1.37;;
70715;SDS011;59053;50.832;12.882;2023-04-03T05:52:11;3.45;;;0.90;;
70715;SDS011;59053;50.832;12.882;2023-04-03T05:54:44;3.15;;;1.10;;
70715;SDS011;59053;50.832;12.882;2023-04-03T05:57:16;7.22;;;1.20;;
70715;SDS011;59053;50.832;12.882;2023-04-03T05:59:42;1.87;;;1.00;;
70715;SDS011;59053;50.832;12.882;2023-04-03T06:02:10;3.25;;;1.00;;
70715;SDS011;59053;50.832;12.882;2023-04-03T06:04:40;6.93;;;1.57;;
70715;SDS011;59053;50.832;12.882;2023-04-03T06:07:05;2.38;;;1.30;;
70715;SDS011;59053;50.832;12.882;2023-04-03T06:09:31;4.50;;;0.87;;
70715;SDS011;59053;50.832;12.882;2023-04-03T06:11:58;6.13;;;0.70;;
70715;SDS011;59053;50.832;12.882;2023-04-03T06:14:27;8.20;;;1.35;;
70715;SDS011;59053;50.832;12.882;2023-04-03T06:16:53;2.78;;;0.95;;
70715;SDS011;59053;50.832;12.882;2023-04-03T06:19:19;10.25;;;1.67;;
70715;SDS011;59053;50.832;12.882;2023-04-03T06:21:49;5.28;;;1.27;;
70715;SDS011;59053;50.832;12.882;2023-04-03T06:24:15;2.55;;;1.42;;
70715;SDS011;59053;50.832;12.882;2023-04-03T06:26:41;6.88;;;1.50;;
70715;SDS011;59053;50.832;12.882;2023-04-03T06:29:07;4.32;;;1.35;;
70715;SDS011;59053;50.832;12.882;2023-04-03T06:31:32;6.30;;;1.53;;
70715;SDS011;59053;50.832;12.882;2023-04-03T06:33:58;3.53;;;1.20;;
70715;SDS011;59053;50.832;12.882;2023-04-03T06:36:23;1.98;;;0.98;;
70715;SDS011;59053;50.832;12.882;2023-04-03T06:38:49;7.17;;;1.30;;
70715;SDS011;59053;50.832;12.882;2023-04-03T06:41:14;2.30;;;0.80;;
70715;SDS011;59053;50.832;12.882;2023-04-03T06:43:41;5.93;;;1.83;;
70715;SDS011;59053;50.832;12.882;2023-04-03T06:46:10;5.97;;;1.58;;
70715;SDS011;59053;50.832;12.882;2023-04-03T06:48:38;3.92;;;1.55;;
70715;SDS011;59053;50.832;12.882;2023-04-03T06:51:03;11.13;;;2.83;;
70715;SDS011;59053;50.832;12.882;2023-04-03T06:53:29;5.07;;;1.90;;
70715;SDS011;59053;50.832;12.882;2023-04-03T06:55:54;9.93;;;2.20;;
70715;SDS011;59053;50.832;12.882;2023-04-03T06:58:20;6.15;;;1.20;;
70715;SDS011;59053;50.832;12.882;2023-04-03T07:00:47;3.70;;;1.43;;
70715;SDS011;59053;50.832;12.882;2023-04-03T07:03:12;5.50;;;1.70;;
70715;SDS011;59053;50.832;12.882;2023-04-03T07:05:38;2.17;;;1.10;;
70715;SDS011;59053;50.832;12.882;2023-04-03T07:08:03;7.35;;;2.00;;
70715;SDS011;59053;50.832;12.882;2023-04-03T07:10:28;3.67;;;1.40;;
70715;SDS011;59053;50.832;12.882;2023-04-03T07:12:54;3.90;;;1.43;;
70715;SDS011;59053;50.832;12.882;2023-04-03T07:15:19;5.10;;;2.27;;
70715;SDS011;59053;50.832;12.882;2023-04-03T07:17:44;8.70;;;2.23;;
70715;SDS011;59053;50.832;12.882;2023-04-03T07:20:10;3.42;;;1.40;;
70715;SDS011;59053;50.832;12.882;2023-04-03T07:22:36;7.80;;;2.28;;
70715;SDS011;59053;50.832;12.882;2023-04-03T07:25:02;5.90;;;2.20;;
70715;SDS011;59053;50.832;12.882;2023-04-03T07:27:27;6.82;;;2.38;;
70715;SDS011;59053;50.832;12.882;2023-04-03T07:29:53;9.43;;;2.50;;
70715;SDS011;59053;50.832;12.882;2023-04-03T07:32:18;5.50;;;1.80;;
70715;SDS011;59053;50.832;12.882;2023-04-03T07:34:44;8.35;;;2.00;;
70715;SDS011;59053;50.832;12.882;2023-04-03T07:37:09;10.40;;;2.97;;
70715;SDS011;59053;50.832;12.882;2023-04-03T07:39:35;3.60;;;1.37;;
70715;SDS011;59053;50.832;12.882;2023-04-03T07:42:00;4.97;;;1.70;;
70715;SDS011;59053;50.832;12.882;2023-04-03T07:44:26;10.48;;;2.20;;
70715;SDS011;59053;50.832;12.882;2023-04-03T07:46:52;5.50;;;1.98;;
70715;SDS011;59053;50.832;12.882;2023-04-03T07:49:17;5.07;;;2.03;;
70715;SDS011;59053;50.832;12.882;2023-04-03T07:51:43;4.53;;;1.80;;
70715;SDS011;59053;50.832;12.882;2023-04-03T07:54:09;6.38;;;2.08;;
70715;SDS011;59053;50.832;12.882;2023-04-03T07:56:35;3.97;;;1.67;;
70715;SDS011;59053;50.832;12.882;2023-04-03T07:59:00;7.50;;;2.83;;
70715;SDS011;59053;50.832;12.882;2023-04-03T08:01:26;3.33;;;1.57;;
70715;SDS011;59053;50.832;12.882;2023-04-03T08:03:51;7.40;;;2.60;;
70715;SDS011;59053;50.832;12.882;2023-04-03T08:06:17;4.65;;;1.98;;
70715;SDS011;59053;50.832;12.882;2023-04-03T08:08:42;4.20;;;1.40;;
70715;SDS011;59053;50.832;12.882;2023-04-03T08:11:08;6.17;;;2.30;;
70715;SDS011;59053;50.832;12.882;2023-04-03T08:13:36;6.03;;;1.48;;
70715;SDS011;59053;50.832;12.882;2023-04-03T08:16:07;4.77;;;1.60;;
70715;SDS011;59053;50.832;12.882;2023-04-03T08:18:34;7.85;;;2.70;;
70715;SDS011;59053;50.832;12.882;2023-04-03T08:20:59;5.60;;;2.70;;
70715;SDS011;59053;50.832;12.882;2023-04-03T08:23:25;4.30;;;1.40;;
70715;SDS011;59053;50.832;12.882;2023-04-03T08:25:51;9.50;;;2.80;;
70715;SDS011;59053;50.832;12.882;2023-04-03T08:28:16;6.87;;;2.43;;
70715;SDS011;59053;50.832;12.882;2023-04-03T08:30:42;5.43;;;2.00;;
70715;SDS011;59053;50.832;12.882;2023-04-03T08:33:07;3.97;;;1.85;;
70715;SDS011;59053;50.832;12.882;2023-04-03T08:35:37;6.37;;;2.27;;
70715;SDS011;59053;50.832;12.882;2023-04-03T08:38:06;9.18;;;2.90;;
70715;SDS011;59053;50.832;12.882;2023-04-03T08:40:32;6.82;;;1.80;;
70715;SDS011;59053;50.832;12.882;2023-04-03T08:43:10;3.83;;;1.63;;
70715;SDS011;59053;50.832;12.882;2023-04-03T08:45:55;4.55;;;1.83;;
70715;SDS011;59053;50.832;12.882;2023-04-03T08:48:21;6.95;;;2.67;;
70715;SDS011;59053;50.832;12.882;2023-04-03T08:50:51;11.93;;;2.23;;
70715;SDS011;59053;50.832;12.882;2023-04-03T08:53:39;5.68;;;2.17;;
70715;SDS011;59053;50.832;12.882;2023-04-03T08:56:10;3.33;;;1.77;;
70715;SDS011;59053;50.832;12.882;2023-04-03T08:58:42;7.05;;;2.38;;
70715;SDS011;59053;50.832;12.882;2023-04-03T09:04:09;6.10;;;2.30;;
70715;SDS011;59053;50.832;12.882;2023-04-03T09:06:37;5.03;;;1.77;;
70715;SDS011;59053;50.832;12.882;2023-04-03T09:17:00;4.50;;;2.00;;
70715;SDS011;59053;50.832;12.882;2023-04-03T09:21:56;3.22;;;1.55;;
70715;SDS011;59053;50.832;12.882;2023-04-03T09:24:22;4.88;;;1.05;;
70715;SDS011;59053;50.832;12.882;2023-04-03T09:26:51;3.85;;;1.52;;
70715;SDS011;59053;50.832;12.882;2023-04-03T09:29:23;1.70;;;1.13;;
70715;SDS011;59053;50.832;12.882;2023-04-03T09:31:58;4.95;;;1.30;;
70715;SDS011;59053;50.832;12.882;2023-04-03T09:34:30;7.45;;;2.20;;
70715;SDS011;59053;50.832;12.882;2023-04-03T09:36:58;4.93;;;1.45;;
70715;SDS011;59053;50.832;12.882;2023-04-03T09:39:30;4.63;;;1.60;;
70715;SDS011;59053;50.832;12.882;2023-04-03T09:42:03;3.90;;;2.00;;
70715;SDS011;59053;50.832;12.882;2023-04-03T09:44:40;1.55;;;0.93;;
70715;SDS011;59053;50.832;12.882;2023-04-03T09:52:43;5.47;;;1.85;;
70715;SDS011;59053;50.832;12.882;2023-04-03T09:57:55;1.53;;;1.00;;
70715;SDS011;59053;50.832;12.882;2023-04-03T10:00:27;6.60;;;2.00;;
70715;SDS011;59053;50.832;12.882;2023-04-03T10:02:55;5.32;;;1.90;;
70715;SDS011;59053;50.832;12.882;2023-04-03T10:05:26;5.28;;;1.83;;
70715;SDS011;59053;50.832;12.882;2023-04-03T10:08:07;5.15;;;2.00;;
70715;SDS011;59053;50.832;12.882;2023-04-03T10:10:35;7.03;;;1.70;;
70715;SDS011;59053;50.832;12.882;2023-04-03T10:13:16;5.93;;;1.58;;
70715;SDS011;59053;50.832;12.882;2023-04-03T10:15:45;2.05;;;1.20;;
70715;SDS011;59053;50.832;12.882;2023-04-03T10:18:31;5.63;;;1.63;;
70715;SDS011;59053;50.832;12.882;2023-04-03T10:21:47;3.53;;;1.30;;
70715;SDS011;59053;50.832;12.882;2023-04-03T10:29:21;5.00;;;2.03;;
70715;SDS011;59053;50.832;12.882;2023-04-03T10:32:10;3.53;;;1.40;;
70715;SDS011;59053;50.832;12.882;2023-04-03T10:34:45;7.78;;;2.22;;
70715;SDS011;59053;50.832;12.882;2023-04-03T10:37:19;6.13;;;1.67;;
70715;SDS011;59053;50.832;12.882;2023-04-03T10:39:53;4.65;;;1.90;;
70715;SDS011;59053;50.832;12.882;2023-04-03T10:42:28;4.93;;;1.27;;
70715;SDS011;59053;50.832;12.882;2023-04-03T10:50:42;3.20;;;1.53;;
70715;SDS011;59053;50.832;12.882;2023-04-03T10:58:29;1.67;;;0.85;;
70715;SDS011;59053;50.832;12.882;2023-04-03T11:00:59;2.70;;;0.88;;
70715;SDS011;59053;50.832;12.882;2023-04-03T11:03:44;2.40;;;1.10;;
70715;SDS011;59053;50.832;12.882;2023-04-03T11:06:13;4.10;;;1.20;;
70715;SDS011;59053;50.832;12.882;2023-04-03T11:11:31;4.55;;;1.45;;
70715;SDS011;59053;50.832;12.882;2023-04-03T11:14:01;3.45;;;1.25;;
70715;SDS011;59053;50.832;12.882;2023-04-03T11:16:29;4.33;;;1.40;;
70715;SDS011;59053;50.832;12.882;2023-04-03T11:18:59;5.47;;;1.00;;
70715;SDS011;59053;50.832;12.882;2023-04-03T11:21:28;2.20;;;1.10;;
70715;SDS011;59053;50.832;12.882;2023-04-03T11:23:56;4.18;;;1.10;;
70715;SDS011;59053;50.832;12.882;2023-04-03T11:26:24;3.72;;;1.40;;
70715;SDS011;59053;50.832;12.882;2023-04-03T11:28:56;5.67;;;1.23;;
70715;SDS011;59053;50.832;12.882;2023-04-03T11:31:28;2.03;;;0.77;;
70715;SDS011;59053;50.832;12.882;2023-04-03T11:34:15;3.50;;;1.23;;
70715;SDS011;59053;50.832;12.882;2023-04-03T11:36:47;1.83;;;0.77;;
70715;SDS011;59053;50.832;12.882;2023-04-03T11:39:25;4.20;;;1.20;;
70715;SDS011;59053;50.832;12.882;2023-04-03T11:41:53;3.37;;;1.20;;
70715;SDS011;59053;50.832;12.882;2023-04-03T11:47:02;0.88;;;0.60;;
70715;SDS011;59053;50.832;12.882;2023-04-03T11:53:03;4.13;;;0.87;;
70715;SDS011;59053;50.832;12.882;2023-04-03T11:58:02;4.20;;;0.60;;
70715;SDS011;59053;50.832;12.882;2023-04-03T12:05:47;2.63;;;0.93;;
70715;SDS011;59053;50.832;12.882;2023-04-03T12:08:23;1.92;;;0.88;;
70715;SDS011;59053;50.832;12.882;2023-04-03T12:13:34;3.90;;;0.90;;
70715;SDS011;59053;50.832;12.882;2023-04-03T12:16:05;1.33;;;0.80;;
70715;SDS011;59053;50.832;12.882;2023-04-03T12:18:41;1.92;;;0.90;;
70715;SDS011;59053;50.832;12.882;2023-04-03T12:21:17;3.83;;;1.05;;
70715;SDS011;59053;50.832;12.882;2023-04-03T12:37:48;3.00;;;0.90;;
70715;SDS011;59053;50.832;12.882;2023-04-03T12:48:25;5.00;;;0.90;;
70715;SDS011;59053;50.832;12.882;2023-04-03T12:50:52;4.70;;;1.17;;
70715;SDS011;59053;50.832;12.882;2023-04-03T12:53:19;1.83;;;0.80;;
70715;SDS011;59053;50.832;12.882;2023-04-03T12:55:49;1.67;;;0.90;;
70715;SDS011;59053;50.832;12.882;2023-04-03T12:58:23;3.75;;;1.20;;
70715;SDS011;59053;50.832;12.882;2023-04-03T13:03:27;5.07;;;1.00;;
70715;SDS011;59053;50.832;12.882;2023-04-03T13:05:54;5.18;;;0.77;;
70715;SDS011;59053;50.832;12.882;2023-04-03T13:08:22;1.77;;;0.80;;
70715;SDS011;59053;50.832;12.882;2023-04-03T13:10:51;2.07;;;0.83;;
70715;SDS011;59053;50.832;12.882;2023-04-03T13:13:18;1.05;;;0.68;;
70715;SDS011;59053;50.832;12.882;2023-04-03T13:15:46;3.40;;;1.20;;
70715;SDS011;59053;50.832;12.882;2023-04-03T13:18:30;2.20;;;0.73;;
70715;SDS011;59053;50.832;12.882;2023-04-03T13:21:02;3.30;;;1.05;;
70715;SDS011;59053;50.832;12.882;2023-04-03T13:23:30;1.08;;;0.70;;
70715;SDS011;59053;50.832;12.882;2023-04-03T13:25:57;1.77;;;0.60;;
70715;SDS011;59053;50.832;12.882;2023-04-03T13:28:25;5.03;;;0.80;;
70715;SDS011;59053;50.832;12.882;2023-04-03T13:31:06;1.97;;;1.00;;
70715;SDS011;59053;50.832;12.882;2023-04-03T13:33:35;1.48;;;0.75;;
70715;SDS011;59053;50.832;12.882;2023-04-03T13:36:05;1.67;;;0.63;;
70715;SDS011;59053;50.832;12.882;2023-04-03T13:38:33;2.23;;;0.90;;
70715;SDS011;59053;50.832;12.882;2023-04-03T13:41:03;5.30;;;1.15;;
70715;SDS011;59053;50.832;12.882;2023-04-03T13:43:31;3.40;;;1.08;;
70715;SDS011;59053;50.832;12.882;2023-04-03T13:46:32;1.63;;;0.63;;
70715;SDS011;59053;50.832;12.882;2023-04-03T13:48:53;5.93;;;0.90;;
70715;SDS011;59053;50.832;12.882;2023-04-03T13:51:22;3.17;;;0.90;;
70715;SDS011;59053;50.832;12.882;2023-04-03T13:53:51;2.70;;;0.82;;
70715;SDS011;59053;50.832;12.882;2023-04-03T13:56:35;3.58;;;1.00;;
70715;SDS011;59053;50.832;12.882;2023-04-03T14:01:40;1.00;;;0.70;;
70715;SDS011;59053;50.832;12.882;2023-04-03T14:04:15;3.27;;;0.67;;
70715;SDS011;59053;50.832;12.882;2023-04-03T14:06:40;3.63;;;1.05;;
70715;SDS011;59053;50.832;12.882;2023-04-03T14:09:15;1.10;;;0.67;;
70715;SDS011;59053;50.832;12.882;2023-04-03T14:11:41;1.90;;;0.35;;
70715;SDS011;59053;50.832;12.882;2023-04-03T14:14:12;3.53;;;0.90;;
70715;SDS011;59053;50.832;12.882;2023-04-03T14:16:41;3.90;;;0.93;;
70715;SDS011;59053;50.832;12.882;2023-04-03T14:19:29;1.25;;;0.60;;
70715;SDS011;59053;50.832;12.882;2023-04-03T14:21:57;2.13;;;0.97;;
70715;SDS011;59053;50.832;12.882;2023-04-03T14:24:23;2.00;;;0.80;;
70715;SDS011;59053;50.832;12.882;2023-04-03T14:26:49;1.30;;;0.80;;
70715;SDS011;59053;50.832;12.882;2023-04-03T14:29:16;2.60;;;0.70;;
70715;SDS011;59053;50.832;12.882;2023-04-03T14:31:42;3.00;;;1.00;;
70715;SDS011;59053;50.832;12.882;2023-04-03T14:34:09;1.73;;;0.75;;
70715;SDS011;59053;50.832;12.882;2023-04-03T14:36:36;2.00;;;0.90;;
70715;SDS011;59053;50.832;12.882;2023-04-03T14:39:03;0.77;;;0.60;;
70715;SDS011;59053;50.832;12.882;2023-04-03T14:41:30;2.80;;;0.80;;
70715;SDS011;59053;50.832;12.882;2023-04-03T14:43:57;1.50;;;0.70;;
70715;SDS011;59053;50.832;12.882;2023-04-03T14:46:33;1.05;;;0.80;;
70715;SDS011;59053;50.832;12.882;2023-04-03T14:49:01;1.05;;;0.52;;
70715;SDS011;59053;50.832;12.882;2023-04-03T14:51:27;2.53;;;1.00;;
70715;SDS011;59053;50.832;12.882;2023-04-03T14:54:01;4.10;;;1.20;;
70715;SDS011;59053;50.832;12.882;2023-04-03T14:56:28;3.22;;;0.93;;
70715;SDS011;59053;50.832;12.882;2023-04-03T14:59:02;0.90;;;0.60;;
70715;SDS011;59053;50.832;12.882;2023-04-03T15:01:29;1.90;;;1.00;;
70715;SDS011;59053;50.832;12.882;2023-04-03T15:03:54;5.10;;;1.17;;
70715;SDS011;59053;50.832;12.882;2023-04-03T15:06:20;9.00;;;3.00;;
70715;SDS011;59053;50.832;12.882;2023-04-03T15:08:46;4.63;;;1.20;;
70715;SDS011;59053;50.832;12.882;2023-04-03T15:11:13;1.95;;;1.20;;
70715;SDS011;59053;50.832;12.882;2023-04-03T15:13:48;2.03;;;0.60;;
70715;SDS011;59053;50.832;12.882;2023-04-03T15:16:17;2.17;;;1.00;;
70715;SDS011;59053;50.832;12.882;2023-04-03T15:18:44;2.10;;;0.90;;
70715;SDS011;59053;50.832;12.882;2023-04-03T15:21:09;2.38;;;1.00;;
70715;SDS011;59053;50.832;12.882;2023-04-03T15:27:05;1.85;;;0.80;;
70715;SDS011;59053;50.832;12.882;2023-04-03T15:29:34;0.73;;;0.52;;
70715;SDS011;59053;50.832;12.882;2023-04-03T15:31:59;2.83;;;1.25;;
70715;SDS011;59053;50.832;12.882;2023-04-03T15:34:25;3.90;;;1.07;;
70715;SDS011;59053;50.832;12.882;2023-04-03T15:36:50;3.70;;;1.17;;
70715;SDS011;59053;50.832;12.882;2023-04-03T15:39:17;3.45;;;1.38;;
70715;SDS011;59053;50.832;12.882;2023-04-03T15:41:43;4.28;;;1.05;;
70715;SDS011;59053;50.832;12.882;2023-04-03T15:44:09;3.60;;;1.40;;
70715;SDS011;59053;50.832;12.882;2023-04-03T15:46:35;0.85;;;0.50;;
70715;SDS011;59053;50.832;12.882;2023-04-03T15:49:00;4.17;;;1.17;;
70715;SDS011;59053;50.832;12.882;2023-04-03T15:51:35;3.15;;;0.82;;
70715;SDS011;59053;50.832;12.882;2023-04-03T15:54:00;5.32;;;1.25;;
70715;SDS011;59053;50.832;12.882;2023-04-03T15:56:25;0.50;;;0.33;;
70715;SDS011;59053;50.832;12.882;2023-04-03T15:58:51;3.53;;;1.20;;
70715;SDS011;59053;50.832;12.882;2023-04-03T16:01:16;4.10;;;0.90;;
70715;SDS011;59053;50.832;12.882;2023-04-03T16:06:27;1.75;;;0.90;;
70715;SDS011;59053;50.832;12.882;2023-04-03T16:08:54;2.25;;;0.90;;
70715;SDS011;59053;50.832;12.882;2023-04-03T16:11:23;5.30;;;1.08;;
70715;SDS011;59053;50.832;12.882;2023-04-03T16:13:49;1.17;;;0.68;;
70715;SDS011;59053;50.832;12.882;2023-04-03T16:16:14;1.10;;;1.00;;
70715;SDS011;59053;50.832;12.882;2023-04-03T16:18:39;4.27;;;1.10;;
70715;SDS011;59053;50.832;12.882;2023-04-03T16:21:05;2.07;;;1.00;;
70715;SDS011;59053;50.832;12.882;2023-04-03T16:23:31;1.10;;;0.82;;
70715;SDS011;59053;50.832;12.882;2023-04-03T16:25:57;1.50;;;0.60;;
70715;SDS011;59053;50.832;12.882;2023-04-03T16:28:22;2.27;;;0.70;;
70715;SDS011;59053;50.832;12.882;2023-04-03T16:30:47;1.50;;;0.67;;
70715;SDS011;59053;50.832;12.882;2023-04-03T16:33:14;1.90;;;0.70;;
70715;SDS011;59053;50.832;12.882;2023-04-03T16:35:39;1.92;;;0.82;;
70715;SDS011;59053;50.832;12.882;2023-04-03T16:38:07;1.63;;;0.83;;
70715;SDS011;59053;50.832;12.882;2023-04-03T16:40:32;1.40;;;0.50;;
70715;SDS011;59053;50.832;12.882;2023-04-03T16:42:59;1.20;;;0.70;;
70715;SDS011;59053;50.832;12.882;2023-04-03T16:45:24;2.97;;;0.80;;
70715;SDS011;59053;50.832;12.882;2023-04-03T16:47:49;5.63;;;0.70;;
70715;SDS011;59053;50.832;12.882;2023-04-03T16:50:15;1.10;;;0.60;;
70715;SDS011;59053;50.832;12.882;2023-04-03T16:52:41;1.10;;;0.80;;
70715;SDS011;59053;50.832;12.882;2023-04-03T16:55:07;2.03;;;0.80;;
70715;SDS011;59053;50.832;12.882;2023-04-03T16:57:33;2.33;;;0.63;;